TimeWET,TemperatureF,Dew PointF,Humidity,Sea Level PressureIn,VisibilityMPH,Wind Direction,Wind SpeedMPH,Gust SpeedMPH,PrecipitationIn,Events,Conditions,WindDirDegrees,DateUTC
12:00 AM,60,48,54,29.93,6,South,5.8,,,,Partly Cloudy,190,2013-03-28 00:00:00
12:00 AM,60.8,48.2,63,29.95,6.2,South,5.8,-,N/A,,Scattered Clouds,190,2013-03-28 00:00:00
12:30 AM,60.8,48.2,63,29.95,6.2,SW,9.2,-,N/A,,Scattered Clouds,230,2013-03-28 00:30:00
1:00 AM,60.8,48.2,63,29.95,6.2,WSW,3.5,-,N/A,,Scattered Clouds,240,2013-03-28 01:00:00
1:30 AM,60.8,53.6,77,29.98,6.2,West,15.0,26.5,N/A,,Scattered Clouds,280,2013-03-28 01:30:00
2:00 AM,57.2,55.4,94,29.98,6.2,WNW,15.0,-,N/A,,Mostly Cloudy,290,2013-03-28 02:00:00
2:30 AM,57.2,55.4,94,29.98,6.2,WNW,12.7,-,N/A,,Mostly Cloudy,290,2013-03-28 02:30:00
3:00 AM,56,56,98,29.98,6,West,9.2,,,,Mostly Cloudy,270,2013-03-28 03:00:00
3:00 AM,57.2,55.4,94,29.98,6.2,West,9.2,-,N/A,,Mostly Cloudy,270,2013-03-28 03:00:00
3:30 AM,57.2,55.4,94,29.98,6.2,West,11.5,-,N/A,,Mostly Cloudy,280,2013-03-28 03:30:00
4:00 AM,57.2,55.4,94,29.98,6.2,West,13.8,-,N/A,,Mostly Cloudy,280,2013-03-28 04:00:00
4:30 AM,55.4,55.4,100,29.98,6.2,West,11.5,-,N/A,,Mostly Cloudy,260,2013-03-28 04:30:00
5:00 AM,55.4,55.4,100,30.01,6.2,WSW,8.1,-,N/A,,Mostly Cloudy,250,2013-03-28 05:00:00
5:30 AM,55.4,55.4,100,30.01,6.2,West,8.1,-,N/A,,Mostly Cloudy,260,2013-03-28 05:30:00
6:00 AM,56,54,92,30.01,6,SW,5.8,,,,Mostly Cloudy,230,2013-03-28 06:00:00
6:00 AM,55.4,53.6,94,30.01,6.2,SW,5.8,-,N/A,,Mostly Cloudy,230,2013-03-28 06:00:00
6:30 AM,55.4,53.6,94,30.01,6.2,West,5.8,-,N/A,,Mostly Cloudy,270,2013-03-28 06:30:00
7:00 AM,55.4,53.6,94,30.04,6.2,WNW,4.6,-,N/A,,Mostly Cloudy,300,2013-03-28 07:00:00
7:30 AM,55.4,53.6,94,30.04,6.2,WNW,4.6,-,N/A,,Mostly Cloudy,300,2013-03-28 07:30:00
8:00 AM,57.2,55.4,94,30.06,6.2,Calm,Calm,-,N/A,,Mostly Cloudy,0,2013-03-28 08:00:00
8:30 AM,59.0,55.4,88,30.06,6.2,Calm,Calm,-,N/A,,Mostly Cloudy,0,2013-03-28 08:30:00
9:00 AM,62,53,64,30.06,6,South,1.2,,,,Mostly Cloudy,180,2013-03-28 09:00:00
9:00 AM,62.6,53.6,72,30.06,6.2,Calm,Calm,-,N/A,,Mostly Cloudy,0,2013-03-28 09:00:00
9:30 AM,60.8,51.8,72,30.09,6.2,Calm,Calm,-,N/A,,Mostly Cloudy,0,2013-03-28 09:30:00
10:00 AM,62.6,51.8,68,30.09,6.2,Calm,Calm,-,N/A,,Mostly Cloudy,0,2013-03-28 10:00:00
10:30 AM,64.4,51.8,64,30.09,6.2,Variable,4.6,-,N/A,,Mostly Cloudy,0,2013-03-28 10:30:00
11:00 AM,64.4,53.6,68,30.09,6.2,West,4.6,-,N/A,,Mostly Cloudy,280,2013-03-28 11:00:00
11:30 AM,64.4,51.8,64,30.09,6.2,NW,5.8,-,N/A,,Mostly Cloudy,320,2013-03-28 11:30:00
12:00 PM,67,51,46,30.07,6,North,3.5,,,,Mostly Cloudy,0,2013-03-28 12:00:00
12:00 PM,68.0,51.8,56,30.09,6.2,Variable,4.6,-,N/A,,Mostly Cloudy,0,2013-03-28 12:00:00
12:30 PM,68.0,50.0,52,30.09,6.2,Calm,Calm,-,N/A,,Mostly Cloudy,0,2013-03-28 12:30:00
1:00 PM,68.0,50.0,52,30.09,6.2,Variable,2.3,-,N/A,,Mostly Cloudy,0,2013-03-28 13:00:00
1:30 PM,69.8,50.0,49,30.06,6.2,NNE,5.8,-,N/A,,Partly Cloudy,30,2013-03-28 13:30:00
2:00 PM,69.8,50.0,49,30.06,6.2,Variable,2.3,-,N/A,,Partly Cloudy,0,2013-03-28 14:00:00
2:30 PM,71.6,48.2,43,30.06,6.2,Variable,3.5,-,N/A,,Partly Cloudy,0,2013-03-28 14:30:00
3:00 PM,72,47,29,30.00,6,Calm,Calm,,,,Scattered Clouds,,2013-03-28 15:00:00
3:00 PM,71.6,46.4,41,30.06,6.2,NNE,1.2,-,N/A,,Partly Cloudy,20,2013-03-28 15:00:00
3:30 PM,73.4,48.2,41,30.06,6.2,North,4.6,-,N/A,,Partly Cloudy,10,2013-03-28 15:30:00
4:00 PM,73.4,46.4,38,30.06,6.2,WNW,4.6,-,N/A,,Partly Cloudy,300,2013-03-28 16:00:00
4:30 PM,75.2,44.6,34,30.06,6.2,NNE,3.5,-,N/A,,Partly Cloudy,20,2013-03-28 16:30:00
5:00 PM,75.2,44.6,34,30.06,6.2,Calm,Calm,-,N/A,,Partly Cloudy,0,2013-03-28 17:00:00
5:30 PM,75.2,44.6,34,30.06,6.2,Calm,Calm,-,N/A,,Partly Cloudy,0,2013-03-28 17:30:00
6:00 PM,74,46,25,30.01,6,Calm,Calm,,,,Scattered Clouds,,2013-03-28 18:00:00
6:00 PM,73.4,46.4,38,30.06,6.2,Calm,Calm,-,N/A,,Scattered Clouds,0,2013-03-28 18:00:00
6:30 PM,73.4,44.6,36,30.06,6.2,Calm,Calm,-,N/A,,Scattered Clouds,0,2013-03-28 18:30:00
7:00 PM,69.8,46.4,43,30.09,6.2,WNW,3.5,-,N/A,,Scattered Clouds,290,2013-03-28 19:00:00
7:30 PM,68.0,46.4,46,30.09,6.2,West,6.9,-,N/A,,Scattered Clouds,270,2013-03-28 19:30:00
8:00 PM,69.8,46.4,43,30.12,6.2,NNW,3.5,-,N/A,,Scattered Clouds,330,2013-03-28 20:00:00
8:30 PM,68.0,46.4,46,30.12,-9999.0,NNW,3.5,-,N/A,,Clear,340,2013-03-28 20:30:00
9:00 PM,68.0,48.2,49,30.15,-9999.0,NNE,6.9,-,N/A,,Clear,20,2013-03-28 21:00:00
9:30 PM,66.2,50.0,56,30.15,-9999.0,NNE,8.1,-,N/A,,Clear,30,2013-03-28 21:30:00
10:00 PM,64.4,55.4,73,30.18,-9999.0,NNE,8.1,-,N/A,,Clear,20,2013-03-28 22:00:00
10:30 PM,62.6,55.4,77,30.15,-9999.0,NE,8.1,-,N/A,,Clear,50,2013-03-28 22:30:00
11:00 PM,60.8,55.4,82,30.15,-9999.0,East,6.9,-,N/A,,Clear,90,2013-03-28 23:00:00
11:30 PM,59.0,55.4,88,30.15,-9999.0,Variable,2.3,-,N/A,,Clear,0,2013-03-28 23:30:00